createdAt,value
2019-01-02T00:00:38.937Z,4.10
2019-01-02T00:03:21.517Z,4.10
2019-01-02T00:06:06.766Z,3.90
2019-01-02T00:08:48.819Z,4.10
2019-01-02T00:11:30.684Z,3.80
2019-01-02T00:14:13.155Z,4.00
2019-01-02T00:16:55.653Z,3.80
2019-01-02T00:19:37.602Z,3.90
2019-01-02T00:22:19.698Z,3.80
2019-01-02T00:25:02.009Z,3.80
2019-01-02T00:27:43.644Z,3.70
2019-01-02T00:30:26.175Z,3.80
2019-01-02T00:33:08.908Z,3.70
2019-01-02T00:35:49.708Z,3.60
2019-01-02T00:38:31.768Z,3.60
2019-01-02T00:41:14.026Z,3.70
2019-01-02T00:43:56.655Z,3.80
2019-01-02T00:46:38.724Z,3.70
2019-01-02T00:49:21.034Z,3.90
2019-01-02T00:52:03.413Z,3.70
2019-01-02T00:54:44.309Z,3.80
2019-01-02T00:57:27.393Z,3.80
2019-01-02T00:59:57.908Z,3.80
2019-01-02T01:02:47.462Z,3.60
2019-01-02T01:05:29.964Z,3.60
2019-01-02T01:08:12.132Z,3.60
2019-01-02T01:10:54.790Z,3.60
2019-01-02T01:13:37.347Z,3.60
2019-01-02T01:16:19.323Z,3.60
2019-01-02T01:19:01.478Z,3.50
2019-01-02T01:21:43.615Z,3.30
2019-01-02T01:24:26.276Z,3.30
2019-01-02T01:27:09.164Z,3.40
2019-01-02T01:29:51.568Z,3.50
2019-01-02T01:32:33.831Z,3.60
2019-01-02T01:35:16.195Z,3.50
2019-01-02T01:37:58.096Z,3.30
2019-01-02T01:40:40.590Z,3.40
2019-01-02T01:43:23.113Z,3.30
2019-01-02T01:46:05.344Z,3.20
2019-01-02T01:48:47.992Z,3.30
2019-01-02T01:51:30.302Z,3.20
2019-01-02T01:54:12.608Z,3.30
2019-01-02T01:59:34.520Z,3.30
2019-01-02T02:02:16.660Z,3.20
2019-01-02T02:04:58.605Z,3.10
2019-01-02T02:07:40.867Z,3.30
2019-01-02T02:10:22.693Z,3.30
2019-01-02T02:13:04.437Z,3.20
2019-01-02T02:15:46.792Z,3.10
2019-01-02T02:18:29.484Z,3.00
2019-01-02T02:21:12.248Z,3.00
2019-01-02T02:23:54.424Z,3.10
2019-01-02T02:26:37.089Z,3.10
2019-01-02T02:29:19.185Z,2.80
2019-01-02T02:32:01.722Z,2.80
2019-01-02T02:34:44.637Z,3.00
2019-01-02T02:37:26.801Z,3.10
2019-01-02T02:40:09.361Z,2.90
2019-01-02T02:42:51.692Z,3.00
2019-01-02T02:45:33.985Z,3.00
2019-01-02T02:48:16.063Z,2.90
2019-01-02T02:50:59.640Z,3.00
2019-01-02T02:53:42.176Z,2.90
2019-01-02T02:56:25.011Z,3.10
2019-01-02T02:59:07.521Z,2.90
2019-01-02T03:01:50.057Z,3.00
2019-01-02T03:04:32.492Z,2.90
2019-01-02T03:07:16.028Z,2.90
2019-01-02T03:09:58.534Z,2.90
2019-01-02T03:12:41.101Z,2.70
2019-01-02T03:15:12.140Z,2.60
2019-01-02T03:17:42.824Z,2.90
2019-01-02T03:23:24.598Z,2.70
2019-01-02T03:26:06.786Z,2.90
2019-01-02T03:28:49.540Z,2.80
2019-01-02T03:31:32.152Z,2.70
2019-01-02T03:34:02.824Z,2.70
2019-01-02T03:36:46.978Z,2.50
2019-01-02T03:39:29.348Z,2.60
2019-01-02T03:42:11.521Z,2.60
2019-01-02T03:44:53.913Z,2.50
2019-01-02T03:47:36.497Z,2.50
2019-01-02T03:50:18.982Z,2.50
2019-01-02T03:53:01.092Z,2.70
2019-01-02T03:55:43.384Z,2.50
2019-01-02T03:58:25.683Z,2.40
2019-01-02T04:04:08.097Z,2.40
2019-01-02T04:06:50.239Z,2.30
2019-01-02T04:09:32.327Z,2.30
2019-01-02T04:12:14.395Z,2.20
2019-01-02T04:14:56.481Z,2.30
2019-01-02T04:17:26.896Z,2.40
2019-01-02T04:20:16.444Z,2.20
2019-01-02T04:22:58.991Z,2.00
2019-01-02T04:25:41.185Z,2.20
2019-01-02T04:28:23.508Z,2.10
2019-01-02T04:31:05.152Z,1.90
2019-01-02T04:33:47.412Z,2.20
2019-01-02T04:36:29.629Z,2.00
2019-01-02T04:39:11.949Z,2.10
2019-01-02T04:41:54.241Z,2.10
2019-01-02T04:44:36.943Z,2.00
2019-01-02T04:47:19.040Z,2.00
2019-01-02T04:50:00.932Z,2.00
2019-01-02T04:52:43.236Z,2.30
2019-01-02T04:55:25.490Z,2.00
2019-01-02T04:58:08.096Z,2.10
2019-01-02T05:00:38.910Z,2.10
2019-01-02T05:03:21.347Z,1.80
2019-01-02T05:06:03.384Z,1.80
2019-01-02T05:08:45.841Z,1.60
2019-01-02T05:11:28.196Z,1.70
2019-01-02T05:14:10.170Z,1.80
2019-01-02T05:16:52.248Z,1.90
2019-01-02T05:19:34.468Z,1.70
2019-01-02T05:22:16.659Z,1.50
2019-01-02T05:24:58.926Z,1.40
2019-01-02T05:27:41.262Z,1.30
2019-01-02T05:30:23.795Z,1.50
2019-01-02T05:33:05.821Z,1.60
2019-01-02T05:35:48.108Z,1.40
2019-01-02T05:38:30.059Z,1.40
2019-01-02T05:41:12.022Z,1.70
2019-01-02T05:43:54.474Z,1.70
2019-01-02T05:46:36.699Z,1.70
2019-01-02T05:49:18.288Z,1.50
2019-01-02T05:52:00.416Z,1.70
2019-01-02T05:54:42.078Z,1.70
2019-01-02T05:57:24.978Z,1.60
2019-01-02T05:59:56.546Z,1.40
2019-01-02T06:02:38.592Z,1.80
2019-01-02T06:05:20.500Z,1.30
2019-01-02T06:08:03.036Z,1.40
2019-01-02T06:10:44.892Z,1.50
2019-01-02T06:13:27.504Z,1.30
2019-01-02T06:16:09.895Z,1.50
2019-01-02T06:18:52.087Z,1.90
2019-01-02T06:21:34.577Z,1.50
2019-01-02T06:24:16.892Z,1.70
2019-01-02T06:26:59.528Z,1.50
2019-01-02T06:29:41.775Z,1.50
2019-01-02T06:32:23.781Z,1.50
2019-01-02T06:35:06.640Z,1.30
2019-01-02T06:37:49.152Z,1.10
2019-01-02T06:40:31.418Z,1.10
2019-01-02T06:49:15.052Z,1.40
2019-01-02T06:51:57.328Z,1.30
2019-01-02T06:54:40.036Z,1.30
2019-01-02T06:57:22.635Z,1.10
2019-01-02T07:00:04.744Z,1.30
2019-01-02T07:02:46.997Z,1.30
2019-01-02T07:05:29.610Z,1.60
2019-01-02T07:08:13.183Z,1.50
2019-01-02T07:10:55.193Z,1.50
2019-01-02T07:13:37.804Z,1.70
2019-01-02T07:16:19.913Z,1.50
2019-01-02T07:19:02.864Z,1.40
2019-01-02T07:21:45.149Z,1.20
2019-01-02T07:24:27.425Z,1.60
2019-01-02T07:27:10.387Z,1.30
2019-01-02T07:29:52.275Z,1.60
2019-01-02T07:32:34.752Z,1.40
2019-01-02T07:35:16.766Z,1.50
2019-01-02T07:37:59.280Z,1.50
2019-01-02T07:40:41.752Z,1.30
2019-01-02T07:43:24.212Z,1.50
2019-01-02T07:46:06.284Z,1.40
2019-01-02T07:54:10.294Z,1.40
2019-01-02T07:56:52.208Z,1.10
2019-01-02T07:59:34.693Z,1.20
2019-01-02T08:02:16.704Z,1.30
2019-01-02T08:04:58.993Z,0.90
2019-01-02T08:07:41.141Z,1.10
2019-01-02T08:10:23.281Z,1.20
2019-01-02T08:13:06.028Z,1.00
2019-01-02T08:15:48.602Z,1.20
2019-01-02T08:18:31.100Z,1.10
2019-01-02T08:21:12.651Z,1.20
2019-01-02T08:23:54.616Z,1.30
2019-01-02T08:26:36.610Z,1.10
2019-01-02T08:29:18.817Z,1.30
2019-01-02T08:32:01.170Z,1.40
2019-01-02T08:34:43.738Z,1.30
2019-01-02T08:37:26.163Z,1.30
2019-01-02T08:40:08.388Z,1.20
2019-01-02T08:42:50.679Z,1.10
2019-01-02T08:45:32.744Z,1.20
2019-01-02T08:48:15.264Z,1.50
2019-01-02T08:50:57.177Z,1.40
2019-01-02T08:53:39.500Z,1.40
2019-01-02T08:56:21.939Z,1.50
2019-01-02T08:59:05.084Z,1.50
2019-01-02T09:01:47.273Z,1.60
2019-01-02T09:04:29.359Z,1.50
2019-01-02T09:07:11.395Z,1.50
2019-01-02T09:12:32.835Z,1.80
2019-01-02T09:15:15.176Z,1.70
2019-01-02T09:17:56.803Z,1.70
2019-01-02T09:20:39.457Z,1.80
2019-01-02T09:23:21.342Z,1.80
2019-01-02T09:26:03.349Z,1.70
2019-01-02T09:28:45.499Z,1.80
2019-01-02T09:31:27.812Z,1.80
2019-01-02T09:34:10.524Z,2.00
2019-01-02T09:36:52.740Z,1.80
2019-01-02T09:39:35.103Z,1.80
2019-01-02T09:42:17.168Z,1.90
2019-01-02T09:44:59.137Z,1.90
2019-01-02T09:47:42.744Z,2.00
2019-01-02T09:50:25.345Z,2.00
2019-01-02T09:53:07.853Z,2.00
2019-01-02T09:55:49.941Z,2.20
2019-01-02T09:58:32.364Z,2.00
2019-01-02T10:01:14.854Z,2.20
2019-01-02T10:03:56.699Z,2.20
2019-01-02T10:06:38.901Z,2.20
2019-01-02T10:09:21.340Z,2.20
2019-01-02T10:12:07.943Z,2.10
2019-01-02T10:15:16.917Z,2.20
2019-01-02T10:17:59.448Z,2.30
2019-01-02T10:20:43.952Z,2.30
2019-01-02T10:23:25.232Z,2.20
2019-01-02T10:26:08.752Z,2.20
2019-01-02T10:28:51.072Z,2.20
2019-01-02T10:31:32.904Z,2.30
2019-01-02T10:34:15.062Z,2.40
2019-01-02T10:36:56.937Z,2.30
2019-01-02T10:39:38.748Z,2.30
2019-01-02T10:42:20.746Z,2.30
2019-01-02T10:45:23.440Z,2.40
2019-01-02T10:48:05.705Z,2.30
2019-01-02T10:50:48.318Z,2.30
2019-01-02T10:53:30.956Z,2.50
2019-01-02T10:56:12.896Z,2.40
2019-01-02T10:58:55.579Z,2.50
2019-01-02T11:01:37.981Z,2.50
2019-01-02T11:04:20.543Z,2.40
2019-01-02T11:12:43.702Z,2.70
2019-01-02T11:15:26.678Z,2.60
2019-01-02T11:18:08.929Z,2.60
2019-01-02T11:20:52.619Z,2.60
2019-01-02T11:23:35.180Z,2.60
2019-01-02T11:26:17.668Z,2.60
2019-01-02T11:29:00.092Z,2.60
2019-01-02T11:32:08.728Z,2.60
2019-01-02T11:34:51.398Z,2.70
2019-01-02T11:37:33.546Z,2.60
2019-01-02T11:40:15.987Z,2.60
2019-01-02T11:42:57.970Z,2.70
2019-01-02T11:45:40.356Z,2.60
2019-01-02T11:48:22.543Z,2.60
2019-01-02T11:51:05.281Z,2.60
2019-01-02T11:53:47.800Z,2.50
2019-01-02T11:56:29.698Z,2.60
2019-01-02T11:59:12.005Z,2.70
2019-01-02T12:01:42.749Z,2.80
2019-01-02T12:04:25.084Z,2.80
2019-01-02T12:07:07.153Z,2.90
2019-01-02T12:09:49.458Z,2.70
2019-01-02T12:12:31.745Z,2.80
2019-01-02T12:15:13.923Z,2.80
2019-01-02T12:17:56.946Z,2.90
2019-01-02T12:20:39.826Z,2.80
2019-01-02T12:23:22.549Z,2.90
2019-01-02T12:26:04.808Z,2.80
2019-01-02T12:28:47.062Z,2.80
2019-01-02T12:31:28.878Z,2.90
2019-01-02T12:34:11.500Z,2.80
2019-01-02T12:36:53.671Z,2.80
2019-01-02T12:39:35.960Z,3.00
2019-01-02T12:42:18.027Z,2.90
2019-01-02T12:45:01.324Z,3.00
2019-01-02T12:47:44.673Z,2.90
2019-01-02T12:50:26.579Z,3.00
2019-01-02T12:53:08.420Z,3.50
2019-01-02T12:55:50.792Z,4.20
2019-01-02T12:58:32.760Z,4.20
2019-01-02T13:01:15.113Z,4.70
2019-01-02T13:03:57.623Z,4.70
2019-01-02T13:06:39.933Z,5.10
2019-01-02T13:09:21.825Z,4.20
2019-01-02T13:12:03.982Z,3.70
2019-01-02T13:14:46.284Z,3.40
2019-01-02T13:17:28.450Z,3.10
2019-01-02T13:20:10.796Z,3.00
2019-01-02T13:22:53.367Z,2.90
2019-01-02T13:25:35.972Z,3.00
2019-01-02T13:28:18.337Z,2.90
2019-01-02T13:31:01.083Z,2.90
2019-01-02T13:33:43.467Z,2.80
2019-01-02T13:36:25.437Z,2.70
2019-01-02T13:39:07.620Z,2.70
2019-01-02T13:41:49.343Z,2.70
2019-01-02T13:44:31.547Z,2.60
2019-01-02T13:47:13.622Z,2.80
2019-01-02T13:49:55.985Z,2.80
2019-01-02T13:52:37.665Z,2.60
2019-01-02T13:55:19.687Z,2.50
2019-01-02T13:58:02.172Z,2.60
2019-01-02T14:00:44.358Z,2.60
2019-01-02T14:03:26.812Z,2.50
2019-01-02T14:06:09.122Z,2.50
2019-01-02T14:08:50.842Z,2.60
2019-01-02T14:11:33.203Z,2.40
2019-01-02T14:14:15.709Z,2.60
2019-01-02T14:16:57.909Z,2.40
2019-01-02T14:19:40.066Z,2.50
2019-01-02T14:22:22.234Z,2.30
2019-01-02T14:25:05.328Z,2.30
2019-01-02T14:27:47.181Z,2.30
2019-01-02T14:30:29.310Z,2.00
2019-01-02T14:33:11.295Z,2.20
2019-01-02T14:35:53.730Z,1.90
2019-01-02T14:38:35.831Z,1.80
2019-01-02T14:41:18.242Z,1.80
2019-01-02T14:43:59.885Z,2.00
2019-01-02T14:46:42.329Z,1.80
2019-01-02T14:49:25.005Z,1.60
2019-01-02T14:52:07.531Z,1.70
2019-01-02T14:54:49.732Z,1.70
2019-01-02T14:57:32.517Z,1.70
2019-01-02T15:00:14.576Z,1.70
2019-01-02T15:02:56.825Z,1.60
2019-01-02T15:05:39.131Z,1.40
2019-01-02T15:08:21.173Z,1.50
2019-01-02T15:11:08.243Z,1.60
2019-01-02T15:13:47.237Z,1.50
2019-01-02T15:16:29.440Z,1.40
2019-01-02T15:19:11.640Z,1.20
2019-01-02T15:21:53.934Z,1.30
2019-01-02T15:24:36.320Z,1.20
2019-01-02T15:27:19.120Z,1.20
2019-01-02T15:30:01.064Z,1.10
2019-01-02T15:32:43.516Z,1.00
2019-01-02T15:35:25.993Z,1.10
2019-01-02T15:38:08.460Z,1.20
2019-01-02T15:40:50.365Z,1.30
2019-01-02T15:43:32.260Z,1.40
2019-01-02T15:46:15.640Z,1.50
2019-01-02T15:48:57.734Z,1.30
2019-01-02T15:51:40.250Z,1.10
2019-01-02T15:54:22.484Z,1.20
2019-01-02T15:56:53.318Z,1.20
2019-01-02T15:59:43.035Z,1.40
2019-01-02T16:02:25.020Z,1.20
2019-01-02T16:05:07.296Z,1.20
2019-01-02T16:07:49.367Z,1.20
2019-01-02T16:10:32.593Z,1.00
2019-01-02T16:13:14.314Z,0.90
2019-01-02T16:15:58.317Z,0.90
2019-01-02T16:18:40.606Z,0.80
2019-01-02T16:21:23.588Z,1.00
2019-01-02T16:24:05.828Z,1.00
2019-01-02T16:26:48.400Z,0.80
2019-01-02T16:29:30.980Z,0.80
2019-01-02T16:32:13.080Z,1.00
2019-01-02T16:37:51.687Z,1.10
2019-01-02T16:40:32.348Z,1.10
2019-01-02T16:43:14.162Z,1.20
2019-01-02T16:45:56.456Z,1.30
2019-01-02T16:48:38.821Z,1.30
2019-01-02T16:51:21.003Z,1.30
2019-01-02T16:54:03.631Z,1.40
2019-01-02T16:56:45.292Z,1.30
2019-01-02T16:59:27.908Z,1.40
2019-01-02T17:02:10.561Z,1.40
2019-01-02T17:04:53.176Z,1.40
2019-01-02T17:07:34.876Z,1.50
2019-01-02T17:10:17.127Z,1.40
2019-01-02T17:12:59.329Z,1.60
2019-01-02T17:15:41.796Z,1.60
2019-01-02T17:18:26.644Z,1.60
2019-01-02T17:21:08.827Z,1.50
2019-01-02T17:23:52.358Z,1.60
2019-01-02T17:26:34.838Z,1.50
2019-01-02T17:29:16.526Z,1.40
2019-01-02T17:31:58.357Z,1.40
2019-01-02T17:34:40.176Z,1.30
2019-01-02T17:37:22.321Z,1.20
2019-01-02T17:40:05.344Z,1.10
2019-01-02T17:42:47.312Z,1.30
2019-01-02T17:45:29.691Z,1.20
2019-01-02T17:48:11.610Z,1.10
2019-01-02T17:50:53.657Z,1.20
2019-01-02T17:53:35.732Z,1.20
2019-01-02T17:56:18.219Z,1.40
2019-01-02T17:59:00.769Z,1.20
2019-01-02T18:01:43.444Z,1.30
2019-01-02T18:04:25.441Z,1.40
2019-01-02T18:07:07.912Z,1.30
2019-01-02T18:09:50.402Z,1.30
2019-01-02T18:12:32.084Z,1.30
2019-01-02T18:15:14.061Z,1.20
2019-01-02T18:17:56.329Z,1.20
2019-01-02T18:20:38.850Z,1.10
2019-01-02T18:23:21.193Z,1.20
2019-01-02T18:26:03.465Z,1.20
2019-01-02T18:28:45.180Z,1.10
2019-01-02T18:31:27.539Z,1.00
2019-01-02T18:34:09.293Z,1.00
2019-01-02T18:36:51.638Z,0.80
2019-01-02T18:39:33.931Z,0.60
2019-01-02T18:42:15.864Z,0.50
2019-01-02T18:44:57.895Z,0.60
2019-01-02T18:47:39.629Z,0.50
2019-01-02T18:50:22.137Z,0.50
2019-01-02T18:53:04.485Z,0.40
2019-01-02T18:55:46.120Z,0.30
2019-01-02T18:58:28.570Z,0.20
2019-01-02T19:01:10.904Z,0.10
2019-01-02T19:03:53.184Z,0.00
2019-01-02T19:06:34.818Z,0.00
2019-01-02T19:09:17.477Z,-0.10
2019-01-02T19:11:59.200Z,-0.10
2019-01-02T19:14:41.805Z,-0.20
2019-01-02T19:17:23.318Z,0.10
2019-01-02T19:20:05.817Z,0.00
2019-01-02T19:22:47.828Z,0.00
2019-01-02T19:25:30.556Z,0.00
2019-01-02T19:28:12.104Z,-0.10
2019-01-02T19:30:54.608Z,-0.20
2019-01-02T19:33:37.630Z,-0.20
2019-01-02T19:36:19.761Z,-0.20
2019-01-02T19:39:01.832Z,-0.30
2019-01-02T19:41:45.276Z,0.00
2019-01-02T19:44:26.968Z,-0.10
2019-01-02T19:47:09.256Z,-0.20
2019-01-02T19:49:50.981Z,-0.10
2019-01-02T19:52:32.938Z,0.10
2019-01-02T19:55:14.853Z,0.20
2019-01-02T20:03:36.318Z,0.20
2019-01-02T20:06:18.966Z,0.10
2019-01-02T20:09:00.622Z,0.00
2019-01-02T20:11:44.557Z,-0.20
2019-01-02T20:14:25.357Z,-0.30
2019-01-02T20:17:07.790Z,-0.40
2019-01-02T20:19:49.753Z,-0.50
2019-01-02T20:22:31.488Z,-0.70
2019-01-02T20:25:13.986Z,-0.80
2019-01-02T20:27:56.012Z,-0.80
2019-01-02T20:36:40.761Z,-0.80
2019-01-02T20:39:22.160Z,-0.80
2019-01-02T20:42:04.024Z,-0.80
2019-01-02T20:44:45.974Z,-0.90
2019-01-02T20:47:28.428Z,-0.80
2019-01-02T20:50:10.542Z,-0.90
2019-01-02T20:52:53.530Z,-0.90
2019-01-02T20:55:35.731Z,-1.00
2019-01-02T20:58:17.900Z,-1.00
2019-01-02T21:00:59.908Z,-0.90
2019-01-02T21:03:41.735Z,-1.00
2019-01-02T21:06:23.685Z,-0.90
2019-01-02T21:09:05.882Z,-0.90
2019-01-02T21:11:48.380Z,-1.00
2019-01-02T21:14:31.031Z,-1.00
2019-01-02T21:17:13.018Z,-1.00
2019-01-02T21:19:55.120Z,-1.00
2019-01-02T21:22:37.250Z,-1.00
2019-01-02T21:25:19.190Z,-0.90
2019-01-02T21:28:01.956Z,-0.80
2019-01-02T21:30:44.460Z,-0.80
2019-01-02T21:33:26.584Z,-0.80
2019-01-02T21:36:09.357Z,-0.60
2019-01-02T21:38:51.252Z,-0.60
2019-01-02T21:41:33.129Z,-0.50
2019-01-02T21:44:15.659Z,-0.40
2019-01-02T21:46:57.960Z,-0.30
2019-01-02T21:49:39.594Z,-0.20
2019-01-02T21:52:22.081Z,0.10
2019-01-02T21:55:03.109Z,0.30
2019-01-02T21:57:45.715Z,0.30
2019-01-02T22:00:28.202Z,0.30
2019-01-02T22:03:10.465Z,0.40
2019-01-02T22:05:53.008Z,0.50
2019-01-02T22:08:35.173Z,0.30
2019-01-02T22:11:17.208Z,0.30
2019-01-02T22:13:59.095Z,0.60
2019-01-02T22:16:41.195Z,0.40
2019-01-02T22:19:23.501Z,0.30
2019-01-02T22:22:05.680Z,0.20
2019-01-02T22:24:48.187Z,0.40
2019-01-02T22:30:51.879Z,0.70
2019-01-02T22:33:34.185Z,0.70
2019-01-02T22:36:16.296Z,0.80
2019-01-02T22:38:58.236Z,0.80
2019-01-02T22:41:40.673Z,0.70
2019-01-02T22:44:23.112Z,0.70
2019-01-02T22:47:06.392Z,0.80
2019-01-02T22:49:48.764Z,0.60
2019-01-02T22:52:31.141Z,0.60
2019-01-02T22:55:13.792Z,0.80
2019-01-02T22:57:55.984Z,0.80
2019-01-02T23:00:57.176Z,0.70
2019-01-02T23:03:58.209Z,0.60
2019-01-02T23:06:59.848Z,0.40
2019-01-02T23:10:01.292Z,0.30
2019-01-02T23:13:02.256Z,0.30
2019-01-02T23:16:03.477Z,0.10
2019-01-02T23:19:04.419Z,0.00
2019-01-02T23:22:05.552Z,0.00
2019-01-02T23:25:06.945Z,-0.10
2019-01-02T23:28:10.304Z,-0.20
2019-01-02T23:31:11.123Z,-0.30
2019-01-02T23:34:12.263Z,-0.30
2019-01-02T23:37:13.615Z,-0.40
2019-01-02T23:40:14.872Z,-0.40
2019-01-02T23:43:16.859Z,-0.50
2019-01-02T23:46:18.115Z,-0.50
2019-01-02T23:49:18.652Z,-0.50
2019-01-02T23:52:19.923Z,-0.70
2019-01-02T23:55:21.121Z,-0.60
2019-01-02T23:58:22.142Z,-0.70
